Airfield :
LOGIN :

Register | Disclaimer

   EN    FR    IT 

 










Legend :    VFR   Marginal VFR   IFR   Intensive IFR   Very Intensive IFR
Visi :
Ceiling :
>= 8 km
>= 3000ft
5 to 8 km
1000 to 3000 ft
1500m to 5 km
500 to 1000 ft
800 to 1500m
200 to 500 ft
< 800m
< 200 ft
Symbols :   Thunderstorms  Fog  Heavy snow  Heavy precipitations  Wind > 20 kt
SIGMETs :     Misc.  Thunderstorms  Icing  Turbulence  Mountain Waves  Volcanic Ashes







- Airport Elevation : 364 ft
- IATA code : FRA


EDDF - Frankfurt Int.

CURRENT METAR :
  • 190220Z 19006KT 9999 SCT012 SCT028 OVC050 05/04 Q1014 TEMPO BKN012

EXPIRED METARs :
  • 190150Z 19006KT 9999 -RA FEW012 SCT020 OVC050 05/04 Q1014 TEMPO BKN012
  • 190120Z 22005KT 9999 -RA OVC012 05/04 Q1015 NOSIG
  • 190050Z 24006KT 9999 -RA OVC013 05/03 Q1015 NOSIG
  • 190020Z 22009KT 9999 -RA BKN013 05/03 Q1015 NOSIG
  • 182350Z 20007KT 9999 BKN013 05/03 Q1015 NOSIG

TAF TAF EDDF
Valid from the 19 at 00:00 until the 20 at 06:00 UTC


182300Z 1900/2006 21010KT 9999 BKN025
PROB30
TEMPO 1900/1903 RA BKN014
BECMG 1905/1908 27010KT
TEMPO 1912/1921 27015G25KT
PROB30
TEMPO 1912/1921 4000 SHRA BKN020TCU
No reported NOTAMs for that airfield.



MET'MAP, your aeronautical weather chart ! - Copyright ORBIFLY December 2007 - Disclaimer

ORBIFLY MET'MAP TEAM :

Programming & Development : Alexandra Zaïnal
Concept & Development : Baudouin d'Aumeries
Co-Development & Prog : Marc-Olivier Méhu
Technical & hardware support : Manuel Goepfert

Contact : metmap@orbifly.com




SOURCES & CREDITS :

   NOAA